sensor_id;sensor_type;location;lat;lon;timestamp;pressure;altitude;pressure_sealevel;temperature;humidity
46756;BME280;32506;52.826;-1.192;2022-12-24T00:01:05;99740.72;;;7.02;71.80
46756;BME280;32506;52.826;-1.192;2022-12-24T00:03:30;99746.03;;;7.02;71.23
46756;BME280;32506;52.826;-1.192;2022-12-24T00:05:56;99739.06;;;7.01;71.26
46756;BME280;32506;52.826;-1.192;2022-12-24T00:08:21;99733.97;;;7.00;71.75
46756;BME280;32506;52.826;-1.192;2022-12-24T00:10:51;99735.00;;;6.99;71.82
46756;BME280;32506;52.826;-1.192;2022-12-24T00:13:18;99743.19;;;6.97;71.15
46756;BME280;32506;52.826;-1.192;2022-12-24T00:15:43;99741.75;;;6.95;72.02
46756;BME280;32506;52.826;-1.192;2022-12-24T00:18:09;99738.25;;;6.94;71.60
46756;BME280;32506;52.826;-1.192;2022-12-24T00:20:34;99731.34;;;6.93;71.59
46756;BME280;32506;52.826;-1.192;2022-12-24T00:23:00;99729.69;;;6.92;71.69
46756;BME280;32506;52.826;-1.192;2022-12-24T00:25:25;99744.00;;;6.91;71.79
46756;BME280;32506;52.826;-1.192;2022-12-24T00:27:51;99732.78;;;6.89;71.94
46756;BME280;32506;52.826;-1.192;2022-12-24T00:30:16;99739.91;;;6.88;71.70
46756;BME280;32506;52.826;-1.192;2022-12-24T00:32:42;99753.41;;;6.87;71.66
46756;BME280;32506;52.826;-1.192;2022-12-24T00:35:07;99745.66;;;6.85;71.86
46756;BME280;32506;52.826;-1.192;2022-12-24T00:37:33;99758.31;;;6.83;71.96
46756;BME280;32506;52.826;-1.192;2022-12-24T00:39:58;99755.88;;;6.82;71.49
46756;BME280;32506;52.826;-1.192;2022-12-24T00:42:24;99761.41;;;6.80;71.76
46756;BME280;32506;52.826;-1.192;2022-12-24T00:44:49;99763.25;;;6.80;71.85
46756;BME280;32506;52.826;-1.192;2022-12-24T00:47:15;99756.31;;;6.79;71.92
46756;BME280;32506;52.826;-1.192;2022-12-24T00:49:40;99760.81;;;6.78;71.70
46756;BME280;32506;52.826;-1.192;2022-12-24T00:52:06;99758.16;;;6.78;71.92
46756;BME280;32506;52.826;-1.192;2022-12-24T00:54:31;99764.47;;;6.77;71.68
46756;BME280;32506;52.826;-1.192;2022-12-24T00:56:57;99768.16;;;6.76;72.01
46756;BME280;32506;52.826;-1.192;2022-12-24T00:59:22;99762.03;;;6.76;72.18
46756;BME280;32506;52.826;-1.192;2022-12-24T01:01:47;99754.88;;;6.76;72.08
46756;BME280;32506;52.826;-1.192;2022-12-24T01:04:13;99769.16;;;6.75;72.29
46756;BME280;32506;52.826;-1.192;2022-12-24T01:06:57;99766.31;;;6.77;71.70
46756;BME280;32506;52.826;-1.192;2022-12-24T01:09:22;99769.78;;;6.77;72.33
46756;BME280;32506;52.826;-1.192;2022-12-24T01:11:48;99763.66;;;6.77;72.37
46756;BME280;32506;52.826;-1.192;2022-12-24T01:14:13;99767.94;;;6.78;72.34
46756;BME280;32506;52.826;-1.192;2022-12-24T01:16:39;99771.44;;;6.78;72.54
46756;BME280;32506;52.826;-1.192;2022-12-24T01:19:04;99774.09;;;6.78;72.42
46756;BME280;32506;52.826;-1.192;2022-12-24T01:21:30;99775.47;;;6.81;72.56
46756;BME280;32506;52.826;-1.192;2022-12-24T01:23:55;99770.38;;;6.79;72.73
46756;BME280;32506;52.826;-1.192;2022-12-24T01:26:21;99778.97;;;6.81;72.90
46756;BME280;32506;52.826;-1.192;2022-12-24T01:28:46;99778.97;;;6.81;72.75
46756;BME280;32506;52.826;-1.192;2022-12-24T01:31:13;99793.91;;;6.82;72.46
46756;BME280;32506;52.826;-1.192;2022-12-24T01:33:40;99790.19;;;6.83;72.67
46756;BME280;32506;52.826;-1.192;2022-12-24T01:36:06;99800.81;;;6.83;72.19
46756;BME280;32506;52.826;-1.192;2022-12-24T01:38:31;99799.59;;;6.86;72.60
46756;BME280;32506;52.826;-1.192;2022-12-24T01:40:56;99813.72;;;6.86;72.55
46756;BME280;32506;52.826;-1.192;2022-12-24T01:43:40;99813.50;;;6.88;72.72
46756;BME280;32506;52.826;-1.192;2022-12-24T01:46:19;99813.72;;;6.86;72.69
46756;BME280;32506;52.826;-1.192;2022-12-24T01:48:59;99814.31;;;6.88;72.66
46756;BME280;32506;52.826;-1.192;2022-12-24T01:51:32;99815.13;;;6.89;72.48
46756;BME280;32506;52.826;-1.192;2022-12-24T01:54:10;99809.63;;;6.91;72.45
46756;BME280;32506;52.826;-1.192;2022-12-24T01:56:43;99801.66;;;6.91;73.06
46756;BME280;32506;52.826;-1.192;2022-12-24T01:59:12;99804.31;;;6.91;72.92
46756;BME280;32506;52.826;-1.192;2022-12-24T02:01:39;99812.28;;;6.91;72.95
46756;BME280;32506;52.826;-1.192;2022-12-24T02:04:15;99809.63;;;6.91;73.05
46756;BME280;32506;52.826;-1.192;2022-12-24T02:06:42;99815.72;;;6.91;72.88
46756;BME280;32506;52.826;-1.192;2022-12-24T02:09:07;99821.88;;;6.92;73.31
46756;BME280;32506;52.826;-1.192;2022-12-24T02:11:36;99826.34;;;6.91;73.19
46756;BME280;32506;52.826;-1.192;2022-12-24T02:14:04;99833.31;;;6.92;73.39
46756;BME280;32506;52.826;-1.192;2022-12-24T02:22:04;99831.66;;;6.91;73.18
46756;BME280;32506;52.826;-1.192;2022-12-24T02:27:32;99836.78;;;6.93;72.99
46756;BME280;32506;52.826;-1.192;2022-12-24T02:30:17;99832.50;;;6.92;73.05
46756;BME280;32506;52.826;-1.192;2022-12-24T02:35:18;99850.06;;;6.93;73.30
46756;BME280;32506;52.826;-1.192;2022-12-24T02:37:57;99839.44;;;6.93;73.26
46756;BME280;32506;52.826;-1.192;2022-12-24T02:40:28;99844.75;;;6.93;73.24
46756;BME280;32506;52.826;-1.192;2022-12-24T02:43:00;99853.53;;;6.93;73.15
46756;BME280;32506;52.826;-1.192;2022-12-24T02:45:31;99857.00;;;6.94;72.91
46756;BME280;32506;52.826;-1.192;2022-12-24T02:47:59;99846.38;;;6.94;73.00
46756;BME280;32506;52.826;-1.192;2022-12-24T02:50:25;99850.06;;;6.93;73.63
46756;BME280;32506;52.826;-1.192;2022-12-24T02:52:51;99857.22;;;6.92;72.90
46756;BME280;32506;52.826;-1.192;2022-12-24T02:55:28;99861.50;;;6.93;73.49
46756;BME280;32506;52.826;-1.192;2022-12-24T03:04:14;99854.34;;;6.94;72.98
46756;BME280;32506;52.826;-1.192;2022-12-24T03:09:24;99848.44;;;6.92;73.62
46756;BME280;32506;52.826;-1.192;2022-12-24T03:11:58;99851.28;;;6.90;73.03
46756;BME280;32506;52.826;-1.192;2022-12-24T03:14:25;99859.88;;;6.92;73.42
46756;BME280;32506;52.826;-1.192;2022-12-24T03:16:51;99867.84;;;6.92;73.58
46756;BME280;32506;52.826;-1.192;2022-12-24T03:19:18;99864.38;;;6.92;73.60
46756;BME280;32506;52.826;-1.192;2022-12-24T03:21:46;99874.16;;;6.91;73.39
46756;BME280;32506;52.826;-1.192;2022-12-24T03:24:12;99872.34;;;6.92;72.94
46756;BME280;32506;52.826;-1.192;2022-12-24T03:26:38;99876.63;;;6.93;73.25
46756;BME280;32506;52.826;-1.192;2022-12-24T03:29:06;99875.81;;;6.92;73.08
46756;BME280;32506;52.826;-1.192;2022-12-24T03:31:46;99877.66;;;6.92;73.18
46756;BME280;32506;52.826;-1.192;2022-12-24T03:34:13;99885.63;;;6.92;73.58
46756;BME280;32506;52.826;-1.192;2022-12-24T03:36:39;99882.13;;;6.91;72.93
46756;BME280;32506;52.826;-1.192;2022-12-24T03:39:05;99874.16;;;6.91;73.45
46756;BME280;32506;52.826;-1.192;2022-12-24T03:41:31;99871.50;;;6.91;73.12
46756;BME280;32506;52.826;-1.192;2022-12-24T03:43:56;99872.53;;;6.90;72.93
46756;BME280;32506;52.826;-1.192;2022-12-24T03:46:21;99870.50;;;6.92;73.09
46756;BME280;32506;52.826;-1.192;2022-12-24T03:48:47;99878.69;;;6.91;72.89
46756;BME280;32506;52.826;-1.192;2022-12-24T03:51:21;99878.69;;;6.91;73.06
46756;BME280;32506;52.826;-1.192;2022-12-24T03:53:47;99877.84;;;6.90;73.21
46756;BME280;32506;52.826;-1.192;2022-12-24T03:56:13;99886.66;;;6.91;72.92
46756;BME280;32506;52.826;-1.192;2022-12-24T03:58:39;99894.81;;;6.89;73.06
46756;BME280;32506;52.826;-1.192;2022-12-24T04:01:04;99893.19;;;6.88;72.74
46756;BME280;32506;52.826;-1.192;2022-12-24T04:03:30;99899.50;;;6.87;72.98
46756;BME280;32506;52.826;-1.192;2022-12-24T04:06:10;99899.50;;;6.87;72.73
46756;BME280;32506;52.826;-1.192;2022-12-24T04:08:36;99898.72;;;6.86;72.77
46756;BME280;32506;52.826;-1.192;2022-12-24T04:11:07;99913.00;;;6.85;73.39
46756;BME280;32506;52.826;-1.192;2022-12-24T04:13:33;99915.88;;;6.84;72.80
46756;BME280;32506;52.826;-1.192;2022-12-24T04:16:01;99919.53;;;6.83;72.88
46756;BME280;32506;52.826;-1.192;2022-12-24T04:18:27;99922.19;;;6.83;72.83
46756;BME280;32506;52.826;-1.192;2022-12-24T04:20:53;99921.56;;;6.81;73.00
46756;BME280;32506;52.826;-1.192;2022-12-24T04:23:18;99916.25;;;6.81;72.63
46756;BME280;32506;52.826;-1.192;2022-12-24T04:25:44;99923.41;;;6.80;72.57
46756;BME280;32506;52.826;-1.192;2022-12-24T04:28:10;99927.09;;;6.79;72.22
46756;BME280;32506;52.826;-1.192;2022-12-24T04:30:37;99932.63;;;6.78;72.58
46756;BME280;32506;52.826;-1.192;2022-12-24T04:33:03;99946.91;;;6.77;72.55
46756;BME280;32506;52.826;-1.192;2022-12-24T04:35:28;99951.41;;;6.76;72.95
46756;BME280;32506;52.826;-1.192;2022-12-24T04:37:54;99952.41;;;6.75;71.94
46756;BME280;32506;52.826;-1.192;2022-12-24T04:40:19;99958.75;;;6.74;72.54
46756;BME280;32506;52.826;-1.192;2022-12-24T04:42:45;99966.13;;;6.72;72.15
46756;BME280;32506;52.826;-1.192;2022-12-24T04:45:11;99969.78;;;6.71;72.39
46756;BME280;32506;52.826;-1.192;2022-12-24T04:47:36;99968.97;;;6.70;72.23
46756;BME280;32506;52.826;-1.192;2022-12-24T04:50:02;99974.50;;;6.69;72.12
46756;BME280;32506;52.826;-1.192;2022-12-24T04:52:28;99971.22;;;6.67;71.96
46756;BME280;32506;52.826;-1.192;2022-12-24T04:54:53;99978.38;;;6.66;72.17
46756;BME280;32506;52.826;-1.192;2022-12-24T04:57:19;99981.25;;;6.65;72.45
46756;BME280;32506;52.826;-1.192;2022-12-24T04:59:44;99981.41;;;6.63;72.06
46756;BME280;32506;52.826;-1.192;2022-12-24T05:02:09;99987.75;;;6.62;71.82
46756;BME280;32506;52.826;-1.192;2022-12-24T05:04:35;99990.63;;;6.61;71.70
46756;BME280;32506;52.826;-1.192;2022-12-24T05:07:01;99987.34;;;6.59;71.99
46756;BME280;32506;52.826;-1.192;2022-12-24T05:09:26;99982.22;;;6.57;72.43
46756;BME280;32506;52.826;-1.192;2022-12-24T05:11:52;99982.44;;;6.55;71.83
46756;BME280;32506;52.826;-1.192;2022-12-24T05:14:17;99980.78;;;6.54;71.81
46756;BME280;32506;52.826;-1.192;2022-12-24T05:16:43;99987.31;;;6.52;71.76
46756;BME280;32506;52.826;-1.192;2022-12-24T05:19:08;99992.00;;;6.50;72.12
46756;BME280;32506;52.826;-1.192;2022-12-24T05:21:34;99991.19;;;6.49;71.44
46756;BME280;32506;52.826;-1.192;2022-12-24T05:23:59;99997.50;;;6.48;71.94
46756;BME280;32506;52.826;-1.192;2022-12-24T05:26:45;100004.03;;;6.46;71.92
46756;BME280;32506;52.826;-1.192;2022-12-24T05:29:12;100010.38;;;6.45;71.65
46756;BME280;32506;52.826;-1.192;2022-12-24T05:31:38;100009.16;;;6.41;71.79
46756;BME280;32506;52.826;-1.192;2022-12-24T05:34:04;100004.84;;;6.40;71.59
46756;BME280;32506;52.826;-1.192;2022-12-24T05:36:30;100012.19;;;6.37;71.40
46756;BME280;32506;52.826;-1.192;2022-12-24T05:38:56;100012.38;;;6.36;71.51
46756;BME280;32506;52.826;-1.192;2022-12-24T05:41:22;100021.34;;;6.35;71.53
46756;BME280;32506;52.826;-1.192;2022-12-24T05:43:48;100026.06;;;6.33;71.41
46756;BME280;32506;52.826;-1.192;2022-12-24T05:46:15;100036.25;;;6.29;71.49
46756;BME280;32506;52.826;-1.192;2022-12-24T05:48:40;100036.25;;;6.29;71.87
46756;BME280;32506;52.826;-1.192;2022-12-24T05:51:08;100041.75;;;6.28;71.52
46756;BME280;32506;52.826;-1.192;2022-12-24T05:53:34;100041.13;;;6.26;71.14
46756;BME280;32506;52.826;-1.192;2022-12-24T05:56:08;100036.22;;;6.22;71.27
46756;BME280;32506;52.826;-1.192;2022-12-24T05:58:34;100040.72;;;6.22;71.22
46756;BME280;32506;52.826;-1.192;2022-12-24T06:01:00;100040.91;;;6.20;71.47
46756;BME280;32506;52.826;-1.192;2022-12-24T06:03:26;100042.13;;;6.18;71.20
46756;BME280;32506;52.826;-1.192;2022-12-24T06:06:03;100046.81;;;6.16;71.58
46756;BME280;32506;52.826;-1.192;2022-12-24T06:08:30;100048.66;;;6.15;71.33
46756;BME280;32506;52.826;-1.192;2022-12-24T06:11:00;100057.63;;;6.14;71.12
46756;BME280;32506;52.826;-1.192;2022-12-24T06:13:27;100055.16;;;6.13;71.46
46756;BME280;32506;52.826;-1.192;2022-12-24T06:15:57;100063.31;;;6.11;71.69
46756;BME280;32506;52.826;-1.192;2022-12-24T06:18:23;100062.50;;;6.11;71.64
46756;BME280;32506;52.826;-1.192;2022-12-24T06:20:52;100060.88;;;6.10;71.75
46756;BME280;32506;52.826;-1.192;2022-12-24T06:23:18;100056.56;;;6.09;71.85
46756;BME280;32506;52.826;-1.192;2022-12-24T06:25:44;100060.03;;;6.09;71.51
46756;BME280;32506;52.826;-1.192;2022-12-24T06:28:10;100067.38;;;6.07;71.82
46756;BME280;32506;52.826;-1.192;2022-12-24T06:30:35;100064.72;;;6.07;71.70
46756;BME280;32506;52.826;-1.192;2022-12-24T06:33:01;100066.53;;;6.07;71.82
46756;BME280;32506;52.826;-1.192;2022-12-24T06:35:26;100072.88;;;6.05;71.81
46756;BME280;32506;52.826;-1.192;2022-12-24T06:37:52;100064.09;;;6.05;72.15
46756;BME280;32506;52.826;-1.192;2022-12-24T06:40:17;100065.09;;;6.04;71.89
46756;BME280;32506;52.826;-1.192;2022-12-24T06:42:42;100061.84;;;6.02;71.84
46756;BME280;32506;52.826;-1.192;2022-12-24T06:45:08;100080.41;;;6.02;71.80
46756;BME280;32506;52.826;-1.192;2022-12-24T06:47:34;100083.88;;;6.02;71.58
46756;BME280;32506;52.826;-1.192;2022-12-24T06:49:59;100083.25;;;6.00;71.94
46756;BME280;32506;52.826;-1.192;2022-12-24T06:52:25;100091.22;;;6.00;72.06
46756;BME280;32506;52.826;-1.192;2022-12-24T06:54:50;100096.53;;;6.00;72.50
46756;BME280;32506;52.826;-1.192;2022-12-24T06:57:15;100103.66;;;6.00;71.94
46756;BME280;32506;52.826;-1.192;2022-12-24T06:59:41;100103.66;;;6.00;72.29
46756;BME280;32506;52.826;-1.192;2022-12-24T07:02:08;100102.16;;;5.97;72.64
46756;BME280;32506;52.826;-1.192;2022-12-24T07:04:33;100106.50;;;5.98;71.83
46756;BME280;32506;52.826;-1.192;2022-12-24T07:06:59;100116.31;;;5.98;72.42
46756;BME280;32506;52.826;-1.192;2022-12-24T07:09:24;100114.47;;;5.98;72.33
46756;BME280;32506;52.826;-1.192;2022-12-24T07:11:50;100111.97;;;5.97;71.99
46756;BME280;32506;52.826;-1.192;2022-12-24T07:14:15;100120.75;;;5.97;72.21
46756;BME280;32506;52.826;-1.192;2022-12-24T07:16:41;100119.94;;;5.97;72.25
46756;BME280;32506;52.826;-1.192;2022-12-24T07:19:06;100121.78;;;5.96;72.62
46756;BME280;32506;52.826;-1.192;2022-12-24T07:21:32;100120.94;;;5.96;72.56
46756;BME280;32506;52.826;-1.192;2022-12-24T07:23:57;100130.75;;;5.95;72.11
46756;BME280;32506;52.826;-1.192;2022-12-24T07:26:23;100128.09;;;5.95;72.43
46756;BME280;32506;52.826;-1.192;2022-12-24T07:28:48;100130.94;;;5.94;72.27
46756;BME280;32506;52.826;-1.192;2022-12-24T07:31:13;100140.50;;;5.95;72.28
46756;BME280;32506;52.826;-1.192;2022-12-24T07:33:39;100141.56;;;5.94;72.24
46756;BME280;32506;52.826;-1.192;2022-12-24T07:36:06;100145.22;;;5.93;72.07
46756;BME280;32506;52.826;-1.192;2022-12-24T07:38:33;100145.22;;;5.93;72.64
46756;BME280;32506;52.826;-1.192;2022-12-24T07:40:59;100156.81;;;5.92;72.66
46756;BME280;32506;52.826;-1.192;2022-12-24T07:43:25;100156.81;;;5.92;71.83
46756;BME280;32506;52.826;-1.192;2022-12-24T07:45:54;100157.81;;;5.91;71.97
46756;BME280;32506;52.826;-1.192;2022-12-24T07:48:20;100142.75;;;5.91;72.55
46756;BME280;32506;52.826;-1.192;2022-12-24T07:50:48;100150.91;;;5.90;72.41
46756;BME280;32506;52.826;-1.192;2022-12-24T07:53:14;100144.56;;;5.91;72.53
46756;BME280;32506;52.826;-1.192;2022-12-24T07:55:39;100147.41;;;5.89;72.08
46756;BME280;32506;52.826;-1.192;2022-12-24T07:58:05;100144.97;;;5.87;72.26
46756;BME280;32506;52.826;-1.192;2022-12-24T08:00:30;100153.72;;;5.88;72.21
46756;BME280;32506;52.826;-1.192;2022-12-24T08:02:56;100158.22;;;5.87;72.48
46756;BME280;32506;52.826;-1.192;2022-12-24T08:05:25;100161.88;;;5.86;72.57
46756;BME280;32506;52.826;-1.192;2022-12-24T08:07:51;100159.22;;;5.86;72.32
46756;BME280;32506;52.826;-1.192;2022-12-24T08:10:17;100154.94;;;5.85;72.42
46756;BME280;32506;52.826;-1.192;2022-12-24T08:12:42;100162.88;;;5.85;72.54
46756;BME280;32506;52.826;-1.192;2022-12-24T08:15:08;100167.38;;;5.85;72.21
46756;BME280;32506;52.826;-1.192;2022-12-24T08:17:33;100163.91;;;5.84;72.47
46756;BME280;32506;52.826;-1.192;2022-12-24T08:19:59;100165.72;;;5.84;72.62
46756;BME280;32506;52.826;-1.192;2022-12-24T08:22:24;100162.28;;;5.83;72.43
46756;BME280;32506;52.826;-1.192;2022-12-24T08:24:50;100174.09;;;5.81;72.40
46756;BME280;32506;52.826;-1.192;2022-12-24T08:27:15;100173.28;;;5.80;72.40
46756;BME280;32506;52.826;-1.192;2022-12-24T08:29:41;100166.31;;;5.79;72.10
46756;BME280;32506;52.826;-1.192;2022-12-24T08:32:06;100182.22;;;5.79;72.52
46756;BME280;32506;52.826;-1.192;2022-12-24T08:34:32;100188.53;;;5.78;72.42
46756;BME280;32506;52.826;-1.192;2022-12-24T08:36:57;100195.69;;;5.78;72.26
46756;BME280;32506;52.826;-1.192;2022-12-24T08:39:23;100192.19;;;5.77;72.58
46756;BME280;32506;52.826;-1.192;2022-12-24T08:41:49;100192.41;;;5.76;72.10
46756;BME280;32506;52.826;-1.192;2022-12-24T08:44:14;100200.34;;;5.76;72.37
46756;BME280;32506;52.826;-1.192;2022-12-24T08:46:40;100205.84;;;5.74;72.28
46756;BME280;32506;52.826;-1.192;2022-12-24T08:49:05;100200.53;;;5.74;72.21
46756;BME280;32506;52.826;-1.192;2022-12-24T08:51:31;100210.34;;;5.74;72.17
46756;BME280;32506;52.826;-1.192;2022-12-24T08:53:56;100207.69;;;5.74;72.51
46756;BME280;32506;52.826;-1.192;2022-12-24T08:56:21;100204.19;;;5.73;72.62
46756;BME280;32506;52.826;-1.192;2022-12-24T08:58:47;100216.66;;;5.72;72.31
46756;BME280;32506;52.826;-1.192;2022-12-24T09:01:16;100223.59;;;5.74;72.20
46756;BME280;32506;52.826;-1.192;2022-12-24T09:03:42;100222.94;;;5.71;72.29
46756;BME280;32506;52.826;-1.192;2022-12-24T09:06:08;100229.09;;;5.72;72.18
46756;BME280;32506;52.826;-1.192;2022-12-24T09:08:34;100227.44;;;5.71;72.69
46756;BME280;32506;52.826;-1.192;2022-12-24T09:11:05;100226.44;;;5.72;72.22
46756;BME280;32506;52.826;-1.192;2022-12-24T09:13:31;100214.00;;;5.72;72.46
46756;BME280;32506;52.826;-1.192;2022-12-24T09:15:56;100214.00;;;5.72;72.78
46756;BME280;32506;52.826;-1.192;2022-12-24T09:18:22;100217.66;;;5.71;72.14
46756;BME280;32506;52.826;-1.192;2022-12-24T09:20:48;100211.34;;;5.72;72.55
46756;BME280;32506;52.826;-1.192;2022-12-24T09:23:13;100221.94;;;5.72;72.42
46756;BME280;32506;52.826;-1.192;2022-12-24T09:25:42;100219.50;;;5.71;72.12
46756;BME280;32506;52.826;-1.192;2022-12-24T09:28:08;100222.94;;;5.71;71.87
46756;BME280;32506;52.826;-1.192;2022-12-24T09:30:35;100228.25;;;5.71;72.31
46756;BME280;32506;52.826;-1.192;2022-12-24T09:33:00;100226.44;;;5.72;72.37
46756;BME280;32506;52.826;-1.192;2022-12-24T09:35:26;100239.69;;;5.72;72.18
46756;BME280;32506;52.826;-1.192;2022-12-24T09:37:51;100230.09;;;5.71;72.13
46756;BME280;32506;52.826;-1.192;2022-12-24T09:40:45;100238.66;;;5.73;72.59
46756;BME280;32506;52.826;-1.192;2022-12-24T09:46:07;100248.28;;;5.74;72.20
46756;BME280;32506;52.826;-1.192;2022-12-24T09:48:41;100246.63;;;5.73;72.51
46756;BME280;32506;52.826;-1.192;2022-12-24T09:51:09;100249.09;;;5.75;72.29
46756;BME280;32506;52.826;-1.192;2022-12-24T09:53:39;100253.19;;;5.77;72.42
46756;BME280;32506;52.826;-1.192;2022-12-24T09:56:12;100252.19;;;5.78;72.05
46756;BME280;32506;52.826;-1.192;2022-12-24T09:58:43;100262.59;;;5.80;72.52
46756;BME280;32506;52.826;-1.192;2022-12-24T10:01:19;100271.00;;;5.83;72.42
46756;BME280;32506;52.826;-1.192;2022-12-24T10:03:45;100262.84;;;5.85;72.06
46756;BME280;32506;52.826;-1.192;2022-12-24T10:06:20;100251.06;;;5.87;72.29
46756;BME280;32506;52.826;-1.192;2022-12-24T10:09:17;100265.56;;;5.92;72.54
46756;BME280;32506;52.826;-1.192;2022-12-24T10:11:53;100259.28;;;5.93;72.69
46756;BME280;32506;52.826;-1.192;2022-12-24T10:15:06;100261.53;;;5.96;72.25
46756;BME280;32506;52.826;-1.192;2022-12-24T10:23:26;100271.50;;;6.09;72.56
46756;BME280;32506;52.826;-1.192;2022-12-24T10:26:07;100278.88;;;6.13;72.49
46756;BME280;32506;52.826;-1.192;2022-12-24T10:28:49;100272.34;;;6.16;72.50
46756;BME280;32506;52.826;-1.192;2022-12-24T10:31:18;100272.59;;;6.21;71.86
46756;BME280;32506;52.826;-1.192;2022-12-24T10:33:52;100271.41;;;6.24;72.46
46756;BME280;32506;52.826;-1.192;2022-12-24T10:36:23;100272.47;;;6.29;73.63
46756;BME280;32506;52.826;-1.192;2022-12-24T10:38:50;100276.19;;;6.35;74.40
46756;BME280;32506;52.826;-1.192;2022-12-24T10:41:16;100274.78;;;6.39;73.74
46756;BME280;32506;52.826;-1.192;2022-12-24T10:43:44;100268.91;;;6.44;73.87
46756;BME280;32506;52.826;-1.192;2022-12-24T10:46:37;100268.75;;;6.52;73.90
46756;BME280;32506;52.826;-1.192;2022-12-24T10:49:15;100273.31;;;6.58;73.80
46756;BME280;32506;52.826;-1.192;2022-12-24T10:51:51;100279.66;;;6.64;73.30
46756;BME280;32506;52.826;-1.192;2022-12-24T10:54:24;100276.03;;;6.71;73.98
46756;BME280;32506;52.826;-1.192;2022-12-24T10:56:54;100271.38;;;6.80;73.71
46756;BME280;32506;52.826;-1.192;2022-12-24T10:59:30;100269.41;;;6.89;74.21
46756;BME280;32506;52.826;-1.192;2022-12-24T11:01:59;100262.06;;;6.98;74.14
46756;BME280;32506;52.826;-1.192;2022-12-24T11:04:28;100265.41;;;7.07;74.46
46756;BME280;32506;52.826;-1.192;2022-12-24T11:06:56;100268.31;;;7.18;73.97
46756;BME280;32506;52.826;-1.192;2022-12-24T11:09:28;100267.38;;;7.39;74.13
46756;BME280;32506;52.826;-1.192;2022-12-24T11:11:57;100268.06;;;7.62;73.74
46756;BME280;32506;52.826;-1.192;2022-12-24T11:14:23;100259.47;;;7.80;73.67
46756;BME280;32506;52.826;-1.192;2022-12-24T11:16:54;100269.13;;;8.01;73.98
46756;BME280;32506;52.826;-1.192;2022-12-24T11:19:33;100263.00;;;8.20;74.03
46756;BME280;32506;52.826;-1.192;2022-12-24T11:22:05;100263.81;;;8.41;73.62
46756;BME280;32506;52.826;-1.192;2022-12-24T11:24:33;100257.66;;;8.61;73.77
46756;BME280;32506;52.826;-1.192;2022-12-24T11:33:13;100254.47;;;9.11;73.85
46756;BME280;32506;52.826;-1.192;2022-12-24T11:35:41;100259.50;;;9.32;74.13
46756;BME280;32506;52.826;-1.192;2022-12-24T11:38:08;100257.34;;;9.54;73.50
46756;BME280;32506;52.826;-1.192;2022-12-24T11:40:36;100253.47;;;9.82;73.43
46756;BME280;32506;52.826;-1.192;2022-12-24T11:43:04;100249.09;;;10.20;72.74
46756;BME280;32506;52.826;-1.192;2022-12-24T11:45:31;100248.09;;;10.65;71.99
46756;BME280;32506;52.826;-1.192;2022-12-24T11:47:59;100244.41;;;11.03;70.78
46756;BME280;32506;52.826;-1.192;2022-12-24T11:50:31;100253.75;;;11.42;69.71
46756;BME280;32506;52.826;-1.192;2022-12-24T11:55:55;100260.69;;;11.92;68.79
46756;BME280;32506;52.826;-1.192;2022-12-24T11:58:29;100259.59;;;12.24;68.53
46756;BME280;32506;52.826;-1.192;2022-12-24T12:03:58;100260.72;;;13.11;65.69
46756;BME280;32506;52.826;-1.192;2022-12-24T12:09:19;100252.22;;;13.72;64.70
46756;BME280;32506;52.826;-1.192;2022-12-24T12:11:51;100253.78;;;14.19;64.90
46756;BME280;32506;52.826;-1.192;2022-12-24T12:14:42;100250.66;;;14.78;64.05
46756;BME280;32506;52.826;-1.192;2022-12-24T12:19:50;100243.72;;;15.54;62.45
46756;BME280;32506;52.826;-1.192;2022-12-24T12:22:28;100246.56;;;15.97;61.37
46756;BME280;32506;52.826;-1.192;2022-12-24T12:24:55;100243.56;;;16.25;58.87
46756;BME280;32506;52.826;-1.192;2022-12-24T12:27:33;100251.28;;;16.54;59.08
46756;BME280;32506;52.826;-1.192;2022-12-24T12:30:03;100246.09;;;16.90;58.51
46756;BME280;32506;52.826;-1.192;2022-12-24T12:32:41;100241.16;;;17.35;57.54
46756;BME280;32506;52.826;-1.192;2022-12-24T12:35:30;100246.88;;;17.80;56.08
46756;BME280;32506;52.826;-1.192;2022-12-24T12:38:08;100236.66;;;18.08;55.57
46756;BME280;32506;52.826;-1.192;2022-12-24T12:43:37;100236.34;;;18.40;55.57
46756;BME280;32506;52.826;-1.192;2022-12-24T12:46:20;100228.78;;;18.42;55.15
46756;BME280;32506;52.826;-1.192;2022-12-24T12:57:10;100237.44;;;18.34;56.31
46756;BME280;32506;52.826;-1.192;2022-12-24T12:59:52;100226.34;;;18.36;56.43
46756;BME280;32506;52.826;-1.192;2022-12-24T13:10:46;100226.94;;;19.14;54.68
46756;BME280;32506;52.826;-1.192;2022-12-24T13:13:29;100240.53;;;19.48;53.22
46756;BME280;32506;52.826;-1.192;2022-12-24T13:19:25;100234.78;;;20.29;51.70
46756;BME280;32506;52.826;-1.192;2022-12-24T13:21:55;100235.53;;;20.64;50.45
46756;BME280;32506;52.826;-1.192;2022-12-24T13:24:23;100237.06;;;20.94;49.59
46756;BME280;32506;52.826;-1.192;2022-12-24T13:27:04;100236.19;;;21.23;48.54
46756;BME280;32506;52.826;-1.192;2022-12-24T13:37:50;100229.97;;;21.94;46.97
46756;BME280;32506;52.826;-1.192;2022-12-24T13:43:05;100233.75;;;22.12;46.25
46756;BME280;32506;52.826;-1.192;2022-12-24T13:50:40;100223.03;;;22.02;47.34
46756;BME280;32506;52.826;-1.192;2022-12-24T13:56:39;100218.16;;;21.85;48.02
46756;BME280;32506;52.826;-1.192;2022-12-24T13:58:52;100219.66;;;21.77;48.25
46756;BME280;32506;52.826;-1.192;2022-12-24T14:01:22;100213.03;;;21.64;48.22
46756;BME280;32506;52.826;-1.192;2022-12-24T14:03:58;100216.19;;;21.52;48.33
46756;BME280;32506;52.826;-1.192;2022-12-24T14:06:27;100212.56;;;21.38;49.02
46756;BME280;32506;52.826;-1.192;2022-12-24T14:08:57;100212.81;;;21.22;49.03
46756;BME280;32506;52.826;-1.192;2022-12-24T14:14:37;100206.75;;;20.87;49.29
46756;BME280;32506;52.826;-1.192;2022-12-24T14:17:21;100209.66;;;20.72;49.52
46756;BME280;32506;52.826;-1.192;2022-12-24T14:19:50;100211.44;;;20.57;49.74
46756;BME280;32506;52.826;-1.192;2022-12-24T14:24:42;100200.56;;;20.33;49.21
46756;BME280;32506;52.826;-1.192;2022-12-24T14:27:18;100203.66;;;20.21;49.46
46756;BME280;32506;52.826;-1.192;2022-12-24T14:32:36;100205.53;;;19.91;49.52
46756;BME280;32506;52.826;-1.192;2022-12-24T14:35:07;100208.13;;;19.72;50.07
46756;BME280;32506;52.826;-1.192;2022-12-24T14:37:34;100208.84;;;19.49;49.99